Time;durP1;ratioP1;P1;durP2;ratioP2;P2;SDS_P1;SDS_P2;PMS_P1;PMS_P2;Temp;Humidity;BMP_temperature;BMP_pressure;BME280_temperature;BME280_humidity;BME280_pressure;Samples;Min_cycle;Max_cycle;Signal;HPM_P1;HPM_P2
2021/06/03 00:01:30;;;;;;;8.77;4.83;;;;;;;11.64;83.11;100588.97;125171;1101;104166;-79
2021/06/03 00:03:59;;;;;;;11.50;4.70;;;;;;;11.64;83.40;100594.23;125182;1102;104251;-79
2021/06/03 00:06:29;;;;;;;10.13;4.63;;;;;;;11.63;83.26;100581.95;125192;1102;104240;-79
2021/06/03 00:08:58;;;;;;;8.50;4.67;;;;;;;11.63;83.29;100584.58;124870;1102;104657;-78
2021/06/03 00:11:27;;;;;;;12.27;4.97;;;;;;;11.65;83.15;100590.77;125181;1102;104216;-79
2021/06/03 00:13:56;;;;;;;8.83;4.90;;;;;;;11.66;83.24;100589.94;124928;1102;104140;-79
2021/06/03 00:16:26;;;;;;;8.93;4.53;;;;;;;11.67;83.25;100589.07;125146;1102;104216;-79
2021/06/03 00:18:55;;;;;;;10.80;4.47;;;;;;;11.68;83.44;100590.88;125062;1102;104271;-79
2021/06/03 00:21:24;;;;;;;8.23;4.23;;;;;;;11.69;83.38;100587.41;125091;1102;104195;-78
2021/06/03 00:23:53;;;;;;;9.23;4.43;;;;;;;11.69;83.44;100583.03;125107;1102;104248;-79
2021/06/03 00:26:23;;;;;;;9.07;4.70;;;;;;;11.71;83.42;100584.83;125173;1102;104185;-79
2021/06/03 00:28:52;;;;;;;10.17;4.50;;;;;;;11.71;83.47;100577.83;124979;1102;104220;-79
2021/06/03 00:31:21;;;;;;;10.10;4.77;;;;;;;11.72;83.52;100584.88;125137;1102;104137;-79
2021/06/03 00:33:50;;;;;;;9.50;4.77;;;;;;;11.73;83.35;100578.76;124954;1102;104168;-79
2021/06/03 00:36:20;;;;;;;9.43;4.43;;;;;;;11.74;83.32;100582.30;125160;1102;104149;-78
2021/06/03 00:38:50;;;;;;;10.57;4.83;;;;;;;11.75;83.55;100582.35;125000;1102;104159;-79
2021/06/03 00:41:19;;;;;;;8.53;4.07;;;;;;;11.75;83.48;100581.44;125169;1102;104150;-79
2021/06/03 00:43:48;;;;;;;9.10;4.57;;;;;;;11.75;83.48;100578.81;125156;1102;104347;-79
2021/06/03 00:46:17;;;;;;;10.80;4.43;;;;;;;11.75;83.24;100579.72;125177;1102;104216;-79
2021/06/03 00:48:47;;;;;;;12.43;4.50;;;;;;;11.77;83.51;100582.41;125116;1102;104197;-79
2021/06/03 00:51:16;;;;;;;12.03;4.60;;;;;;;11.77;83.59;100575.40;125104;1102;104158;-81
2021/06/03 00:53:46;;;;;;;11.60;4.33;;;;;;;11.77;83.39;100587.66;125137;1102;104621;-78
2021/06/03 00:56:15;;;;;;;9.37;4.50;;;;;;;11.76;83.52;100583.23;125116;1102;104149;-78
2021/06/03 00:58:45;;;;;;;9.53;4.47;;;;;;;11.75;83.51;100581.44;125084;1102;104758;-78
2021/06/03 01:01:20;;;;;;;9.97;4.50;;;;;;;11.76;83.36;100584.11;124917;1101;104169;-79
2021/06/03 01:03:49;;;;;;;7.87;4.60;;;;;;;11.76;83.55;100584.11;125168;1102;104198;-79
2021/06/03 01:06:19;;;;;;;14.13;4.47;;;;;;;11.76;83.54;100578.86;125156;1102;104153;-79
2021/06/03 01:08:55;;;;;;;7.97;4.33;;;;;;;11.75;83.45;100574.47;125166;1102;104175;-79
2021/06/03 01:11:30;;;;;;;10.63;4.27;;;;;;;11.76;83.56;100581.48;125153;1102;104181;-80
2021/06/03 01:14:07;;;;;;;9.70;4.37;;;;;;;11.76;83.42;100586.75;125134;1102;104146;-79
2021/06/03 01:16:38;;;;;;;10.40;4.30;;;;;;;11.77;83.45;100574.52;125185;1102;104143;-79
2021/06/03 01:19:12;;;;;;;10.20;5.07;;;;;;;11.77;83.60;100578.03;125177;1102;104249;-79
2021/06/03 01:21:49;;;;;;;9.43;3.90;;;;;;;11.78;83.33;100578.91;125123;1102;104347;-79
2021/06/03 01:24:30;;;;;;;10.27;4.40;;;;;;;11.75;83.56;100577.09;125069;1102;104613;-79
2021/06/03 01:27:04;;;;;;;12.77;4.87;;;;;;;11.76;83.48;100578.86;125134;1102;104640;-79
2021/06/03 01:29:44;;;;;;;9.23;4.47;;;;;;;11.74;83.48;100575.30;124797;1102;104220;-79
2021/06/03 01:32:14;;;;;;;14.53;4.60;;;;;;;11.75;83.60;100571.84;124818;1102;104258;-79
2021/06/03 01:34:44;;;;;;;8.60;4.00;;;;;;;11.77;83.43;100580.66;125181;1102;104182;-79
2021/06/03 01:37:14;;;;;;;11.27;4.50;;;;;;;11.77;83.39;100583.28;125237;1102;104248;-79
2021/06/03 01:39:45;;;;;;;10.83;4.17;;;;;;;11.77;83.34;100575.40;125178;1102;104243;-80
2021/06/03 01:42:16;;;;;;;10.87;4.23;;;;;;;11.77;83.51;100580.66;125214;1102;104229;-79
2021/06/03 01:44:47;;;;;;;12.10;4.70;;;;;;;11.77;83.56;100585.03;125258;1102;104172;-79
2021/06/03 01:47:16;;;;;;;9.60;4.50;;;;;;;11.76;83.50;100584.11;125147;1102;104241;-78
2021/06/03 01:49:46;;;;;;;12.63;4.40;;;;;;;11.77;83.51;100585.03;125115;1102;104749;-80
2021/06/03 01:52:16;;;;;;;11.80;4.53;;;;;;;11.75;83.56;100579.72;125203;1102;104248;-79
2021/06/03 01:54:46;;;;;;;12.73;3.97;;;;;;;11.76;83.82;100586.75;125153;1102;104211;-79
2021/06/03 01:57:16;;;;;;;9.20;3.97;;;;;;;11.75;83.45;100581.44;125213;1102;104588;-79
2021/06/03 01:59:52;;;;;;;9.67;4.50;;;;;;;11.75;83.63;100587.61;125140;1102;104146;-79
2021/06/03 02:02:21;;;;;;;11.13;4.30;;;;;;;11.75;83.39;100582.35;125105;1102;104191;-79
2021/06/03 02:04:50;;;;;;;11.23;4.00;;;;;;;11.77;83.42;100587.66;125210;1102;104137;-80
2021/06/03 02:07:19;;;;;;;8.73;4.07;;;;;;;11.77;83.53;100582.41;125180;1102;104225;-79
2021/06/03 02:09:49;;;;;;;10.20;4.73;;;;;;;11.78;83.53;100576.28;125154;1102;104152;-80
2021/06/03 02:12:20;;;;;;;10.83;4.20;;;;;;;11.78;83.38;100578.91;125169;1102;104271;-81
2021/06/03 02:14:52;;;;;;;6.67;4.03;;;;;;;11.79;83.66;100580.70;125178;1102;104255;-79
2021/06/03 02:17:26;;;;;;;8.07;4.03;;;;;;;11.79;83.52;100581.59;125176;1102;104153;-79
2021/06/03 02:20:05;;;;;;;11.77;4.20;;;;;;;11.80;83.55;100579.87;125118;1102;104175;-78
2021/06/03 02:22:37;;;;;;;10.13;4.30;;;;;;;11.81;83.23;100582.55;125209;1102;104152;-80
2021/06/03 02:25:09;;;;;;;8.57;4.03;;;;;;;11.81;83.41;100582.55;124956;1102;104409;-79
2021/06/03 02:27:40;;;;;;;7.07;4.00;;;;;;;11.82;83.55;100584.31;124963;1103;104306;-80
2021/06/03 02:30:12;;;;;;;8.93;4.27;;;;;;;11.85;83.47;100588.79;124926;1102;104194;-80
2021/06/03 02:32:41;;;;;;;6.70;3.80;;;;;;;11.86;83.43;100590.59;124966;1102;104165;-79
2021/06/03 02:35:12;;;;;;;10.20;3.93;;;;;;;11.87;83.46;100587.09;124985;1102;104306;-80
2021/06/03 02:37:45;;;;;;;7.70;4.20;;;;;;;11.88;83.47;100589.77;124978;1105;104265;-80
2021/06/03 02:40:18;;;;;;;14.13;5.00;;;;;;;11.90;83.55;100589.81;124888;1105;104306;-79
2021/06/03 02:42:49;;;;;;;15.03;4.65;;;;;;;11.91;83.48;100588.98;125007;1105;104312;-79
2021/06/03 02:45:23;;;;;;;10.27;4.83;;;;;;;11.93;83.37;100586.44;124989;1105;104579;-79
2021/06/03 02:47:53;;;;;;;7.93;3.77;;;;;;;11.96;83.27;100586.53;125004;1106;104179;-79
2021/06/03 02:50:25;;;;;;;15.47;4.57;;;;;;;11.97;83.43;100594.47;124935;1105;104751;-80
2021/06/03 02:52:56;;;;;;;10.63;4.17;;;;;;;12.00;83.34;100596.31;124952;1105;104309;-79
2021/06/03 02:55:28;;;;;;;11.67;4.53;;;;;;;12.02;83.36;100586.73;124993;1105;104434;-80
2021/06/03 02:57:59;;;;;;;;;;;;;;;12.05;83.45;100603.48;125024;1105;104150;-79
2021/06/03 03:00:34;;;;;;;8.95;4.20;;;;;;;12.07;83.44;100597.39;124951;1102;104412;-79
2021/06/03 03:03:09;;;;;;;9.80;3.97;;;;;;;12.07;83.54;100590.38;124959;1101;104258;-79
2021/06/03 03:05:40;;;;;;;17.20;4.00;;;;;;;12.10;83.39;100600.12;124957;1102;104804;-79
2021/06/03 03:08:11;;;;;;;10.10;4.10;;;;;;;12.13;83.63;100597.58;124939;1102;104401;-80
2021/06/03 03:10:44;;;;;;;7.00;3.90;;;;;;;12.14;83.34;100596.72;125138;1102;104181;-79
2021/06/03 03:13:15;;;;;;;10.13;4.47;;;;;;;12.15;83.55;100596.77;125162;1102;104146;-79
2021/06/03 03:15:46;;;;;;;9.27;4.00;;;;;;;12.19;83.43;100595.14;125249;1102;104233;-80
2021/06/03 03:18:15;;;;;;;11.57;3.90;;;;;;;12.20;83.48;100587.30;125117;1102;104140;-79
2021/06/03 03:20:46;;;;;;;8.40;3.80;;;;;;;12.22;83.49;100585.59;125096;1102;104133;-79
2021/06/03 03:23:15;;;;;;;8.73;3.83;;;;;;;12.23;83.46;100595.28;125164;1102;104143;-79
2021/06/03 03:25:46;;;;;;;7.50;3.90;;;;;;;12.27;83.19;100592.75;125167;1102;104191;-80
2021/06/03 03:28:16;;;;;;;9.60;3.90;;;;;;;12.29;83.23;100588.41;125226;1102;101933;-80
2021/06/03 03:30:47;;;;;;;8.57;3.93;;;;;;;12.31;83.35;100590.25;125128;1102;104248;-79
2021/06/03 03:33:25;;;;;;;8.00;4.00;;;;;;;12.32;83.40;100596.40;125172;1100;104140;-80
2021/06/03 03:35:54;;;;;;;8.50;3.60;;;;;;;12.35;83.35;100599.13;125115;1102;104835;-79
2021/06/03 03:38:29;;;;;;;8.15;3.90;;;;;;;12.36;83.39;100596.53;125179;1102;104236;-80
2021/06/03 03:40:58;;;;;;;10.77;4.20;;;;;;;12.37;83.28;100603.59;125163;1100;104252;-80
2021/06/03 03:43:29;;;;;;;11.60;4.10;;;;;;;12.40;83.09;100600.14;125101;1102;109097;-79
2021/06/03 03:45:59;;;;;;;10.17;3.90;;;;;;;12.42;83.36;100598.47;125220;1100;104162;-79
2021/06/03 03:48:29;;;;;;;9.17;3.87;;;;;;;12.43;83.33;100588.83;125165;1102;104149;-79
2021/06/03 03:50:58;;;;;;;8.77;4.20;;;;;;;12.45;83.21;100588.03;125118;1102;104152;-80
2021/06/03 03:53:31;;;;;;;11.08;4.40;;;;;;;12.47;83.11;100602.13;125075;1102;104208;-79
2021/06/03 03:56:01;;;;;;;9.27;4.17;;;;;;;12.49;83.02;100600.42;125190;1102;104143;-79
2021/06/03 03:58:38;;;;;;;6.95;3.92;;;;;;;12.52;83.31;100594.36;125169;1102;104294;-80
2021/06/03 04:01:09;;;;;;;11.13;4.00;;;;;;;12.55;83.71;100604.98;125156;1102;104207;-80
2021/06/03 04:03:40;;;;;;;10.77;4.57;;;;;;;12.56;83.00;100612.04;125191;1099;104140;-79
2021/06/03 04:06:11;;;;;;;10.70;4.10;;;;;;;12.57;83.08;100606.83;125142;1102;104191;-81
2021/06/03 04:08:40;;;;;;;9.70;4.10;;;;;;;12.59;83.02;100609.50;125203;1099;104245;-80
2021/06/03 04:11:10;;;;;;;7.60;4.50;;;;;;;12.60;82.88;100619.16;125203;1099;104160;-80
2021/06/03 04:13:43;;;;;;;10.90;4.60;;;;;;;12.63;83.29;100616.62;125207;1099;104254;-80
2021/06/03 04:16:12;;;;;;;12.53;4.80;;;;;;;12.68;83.18;100624.65;125235;1102;104563;-79
2021/06/03 04:18:41;;;;;;;12.10;4.23;;;;;;;12.71;83.10;100622.11;125132;1102;104171;-81
2021/06/03 04:21:11;;;;;;;13.43;4.30;;;;;;;12.76;83.11;100615.22;125040;1102;104209;-79
2021/06/03 04:23:45;;;;;;;12.80;4.00;;;;;;;12.81;83.01;100618.91;125149;1099;104153;-80
2021/06/03 04:26:16;;;;;;;9.37;4.03;;;;;;;12.85;82.92;100617.23;125192;1102;104146;-79
2021/06/03 04:28:46;;;;;;;9.90;4.40;;;;;;;12.88;82.81;100620.84;125179;1102;104225;-79
2021/06/03 04:31:15;;;;;;;11.33;4.20;;;;;;;12.94;82.55;100628.03;125150;1099;105140;-79
2021/06/03 04:33:44;;;;;;;10.43;4.27;;;;;;;13.01;82.86;100622.09;125106;1099;104169;-80
2021/06/03 04:36:14;;;;;;;8.83;3.93;;;;;;;13.08;82.59;100623.15;125144;1102;104217;-80
2021/06/03 04:38:43;;;;;;;9.03;4.53;;;;;;;13.16;82.60;100629.51;125220;1102;104216;-79
2021/06/03 04:41:12;;;;;;;10.77;3.67;;;;;;;13.23;83.06;100627.92;125181;1102;104146;-78
2021/06/03 04:43:43;;;;;;;8.07;4.37;;;;;;;13.28;82.60;100631.59;125071;1099;104235;-79
2021/06/03 04:46:15;;;;;;;8.43;4.10;;;;;;;13.35;82.04;100627.41;125179;1099;104300;-80
2021/06/03 04:48:44;;;;;;;7.13;3.80;;;;;;;13.44;82.52;100628.53;125179;1099;104171;-80
2021/06/03 04:51:13;;;;;;;10.30;3.83;;;;;;;13.53;82.42;100633.16;125224;1102;104143;-79
2021/06/03 04:53:42;;;;;;;10.30;4.20;;;;;;;13.62;82.09;100629.87;125203;1102;104140;-80
2021/06/03 04:56:12;;;;;;;11.53;4.27;;;;;;;13.71;81.97;100637.11;125197;1101;104240;-80
2021/06/03 04:58:41;;;;;;;10.77;4.80;;;;;;;13.75;82.61;100637.23;125181;1102;104341;-80
2021/06/03 05:01:10;;;;;;;10.97;4.47;;;;;;;13.82;82.70;100638.26;125127;1101;104158;-79
2021/06/03 05:03:40;;;;;;;11.33;4.57;;;;;;;13.88;81.68;100637.53;125116;1102;104281;-79
2021/06/03 05:06:09;;;;;;;10.30;4.53;;;;;;;13.94;81.97;100642.95;125128;1102;104137;-80
2021/06/03 05:08:38;;;;;;;9.87;4.50;;;;;;;14.04;81.67;100644.97;125141;1102;104347;-80
2021/06/03 05:11:07;;;;;;;8.87;4.20;;;;;;;14.13;81.91;100647.83;125054;1102;104421;-79
2021/06/03 05:13:36;;;;;;;8.97;4.47;;;;;;;14.23;81.44;100643.66;125130;1102;104185;-79
2021/06/03 05:16:08;;;;;;;7.43;4.03;;;;;;;14.33;81.43;100652.66;125048;1102;105164;-80
2021/06/03 05:18:38;;;;;;;7.00;4.10;;;;;;;14.43;81.60;100646.74;125110;1102;104152;-79
2021/06/03 05:21:07;;;;;;;10.33;3.90;;;;;;;14.55;81.92;100654.02;125130;1102;104175;-78
2021/06/03 05:23:37;;;;;;;10.97;4.53;;;;;;;14.68;81.30;100645.56;125129;1102;104166;-78
2021/06/03 05:26:06;;;;;;;13.87;4.23;;;;;;;14.82;81.72;100644.94;125106;1102;104226;-79
2021/06/03 05:28:36;;;;;;;13.57;4.23;;;;;;;14.90;81.62;100654.81;125106;1102;104140;-78
2021/06/03 05:31:05;;;;;;;10.17;3.90;;;;;;;15.02;80.46;100653.27;125253;1103;104313;-78
2021/06/03 05:33:34;;;;;;;14.13;4.50;;;;;;;15.08;81.25;100648.11;125096;1102;104216;-77
2021/06/03 05:36:04;;;;;;;11.47;4.30;;;;;;;15.15;80.62;100649.14;125098;1102;104675;-77
2021/06/03 05:38:33;;;;;;;14.20;4.70;;;;;;;15.21;80.59;100655.42;125116;1102;104242;-78
2021/06/03 05:41:03;;;;;;;14.70;4.30;;;;;;;15.27;81.13;100657.31;125112;1102;104367;-78
2021/06/03 05:43:32;;;;;;;8.90;3.60;;;;;;;15.34;81.20;100672.41;125176;1102;104230;-77
2021/06/03 05:46:01;;;;;;;7.25;3.80;;;;;;;15.40;80.88;100671.64;125147;1102;104366;-77
2021/06/03 05:48:30;;;;;;;9.00;3.40;;;;;;;15.50;79.66;100656.83;125180;1102;104182;-77
2021/06/03 05:51:00;;;;;;;5.83;3.40;;;;;;;15.60;79.14;100664.08;125088;1102;104483;-78
2021/06/03 05:53:32;;;;;;;8.73;3.90;;;;;;;15.71;79.48;100662.50;125197;1102;104355;-79
2021/06/03 05:56:05;;;;;;;8.13;3.80;;;;;;;15.85;79.63;100661.86;125075;1102;104245;-76
2021/06/03 05:58:39;;;;;;;10.83;3.63;;;;;;;15.97;80.19;100665.62;125067;1102;104335;-75
2021/06/03 06:01:08;;;;;;;6.57;3.60;;;;;;;16.07;78.74;100669.30;125007;1102;104184;-77
2021/06/03 06:03:42;;;;;;;9.17;3.63;;;;;;;16.13;78.45;100668.52;125148;1101;104669;-78
2021/06/03 06:06:23;;;;;;;9.03;3.77;;;;;;;16.15;78.52;100669.42;124986;1102;104290;-76
2021/06/03 06:08:55;;;;;;;12.90;3.77;;;;;;;16.17;78.72;100670.32;125051;1102;104173;-76
2021/06/03 06:11:27;;;;;;;8.97;3.63;;;;;;;16.20;79.21;100673.02;125112;1102;104178;-78
2021/06/03 06:13:58;;;;;;;;;;;;;;;16.24;77.76;100674.86;125077;1102;104246;-77
2021/06/03 06:16:29;;;;;;;8.27;3.40;;;;;;;16.28;78.57;100681.08;125071;1102;104152;-78
2021/06/03 06:19:01;;;;;;;9.93;3.77;;;;;;;16.28;78.86;100676.70;125158;1101;104321;-78
2021/06/03 06:21:33;;;;;;;10.40;4.00;;;;;;;16.35;78.97;100675.02;125152;1102;104144;-78
2021/06/03 06:24:03;;;;;;;6.73;3.70;;;;;;;16.41;78.24;100672.47;125146;1102;104300;-77
2021/06/03 06:26:35;;;;;;;11.30;3.50;;;;;;;16.46;78.00;100673.41;125024;1102;104398;-77
2021/06/03 06:29:11;;;;;;;5.70;3.47;;;;;;;16.53;78.23;100683.23;125059;1102;103976;-76
2021/06/03 06:31:40;;;;;;;9.80;4.00;;;;;;;16.59;77.38;100670.94;125090;1102;104731;-78
2021/06/03 06:34:12;;;;;;;8.87;3.67;;;;;;;16.65;77.61;100671.02;125113;1102;104288;-79
2021/06/03 06:36:46;;;;;;;9.03;3.67;;;;;;;16.76;77.52;100673.81;125058;1102;104166;-78
2021/06/03 06:39:19;;;;;;;10.53;3.60;;;;;;;16.92;77.12;100669.62;125072;1102;104236;-78
2021/06/03 06:41:49;;;;;;;8.53;3.70;;;;;;;16.99;76.00;100688.28;125015;1102;104159;-78
2021/06/03 06:44:24;;;;;;;12.33;3.70;;;;;;;17.06;77.00;100670.67;125082;1101;102937;-79
2021/06/03 06:46:56;;;;;;;10.77;3.80;;;;;;;17.18;76.78;100676.12;124974;1102;104226;-79
2021/06/03 06:49:29;;;;;;;9.73;3.77;;;;;;;17.38;76.34;100678.13;125050;1102;104176;-78
2021/06/03 06:52:03;;;;;;;10.67;3.90;;;;;;;17.57;76.58;100669.45;125026;1102;104345;-78
2021/06/03 06:54:41;;;;;;;9.03;3.97;;;;;;;17.81;76.06;100683.86;125080;1102;104299;-77
2021/06/03 06:57:16;;;;;;;10.00;3.60;;;;;;;17.91;75.92;100687.51;125084;1099;104136;-77
2021/06/03 06:59:49;;;;;;;9.48;4.03;;;;;;;18.02;75.34;100684.94;125044;1100;104159;-76
2021/06/03 07:02:21;;;;;;;9.23;3.73;;;;;;;18.06;75.64;100692.03;125035;1102;104262;-77
2021/06/03 07:04:51;;;;;;;6.80;3.60;;;;;;;18.16;76.01;100690.36;125043;1102;104299;-77
2021/06/03 07:07:21;;;;;;;8.20;4.10;;;;;;;18.22;75.13;100687.76;124986;1102;104194;-78
2021/06/03 07:09:50;;;;;;;7.73;3.67;;;;;;;18.24;75.61;100689.52;125023;1102;104174;-78
2021/06/03 07:12:20;;;;;;;10.17;3.57;;;;;;;18.26;74.54;100698.41;125014;1102;104143;-78
2021/06/03 07:14:53;;;;;;;9.13;3.70;;;;;;;18.28;73.96;100701.96;125092;1102;104188;-79
2021/06/03 07:17:23;;;;;;;8.23;3.80;;;;;;;18.38;74.60;100694.06;125006;1099;104143;-77
2021/06/03 07:19:55;;;;;;;13.57;3.80;;;;;;;18.49;75.03;100682.60;125053;1102;104165;-77
2021/06/03 07:22:26;;;;;;;9.20;3.80;;;;;;;18.63;74.36;100688.00;125229;1101;104213;-77
2021/06/03 07:24:55;;;;;;;12.20;4.40;;;;;;;18.85;74.66;100690.81;125211;1101;104284;-77
2021/06/03 07:27:26;;;;;;;9.07;3.70;;;;;;;19.07;74.96;100685.58;125228;1102;104191;-77
2021/06/03 07:29:59;;;;;;;9.73;3.87;;;;;;;19.28;73.68;100693.64;125175;1102;104903;-78
2021/06/03 07:32:33;;;;;;;11.13;4.03;;;;;;;19.44;74.92;100691.02;125177;1102;104325;-78
2021/06/03 07:35:09;;;;;;;8.00;3.30;;;;;;;19.67;73.17;100685.75;125141;1102;104328;-78
2021/06/03 07:37:41;;;;;;;8.70;3.80;;;;;;;19.70;73.29;100689.29;125144;1102;104294;-78
2021/06/03 07:40:15;;;;;;;6.67;3.10;;;;;;;19.75;71.42;100699.95;125140;1102;104254;-79
2021/06/03 07:42:47;;;;;;;12.13;3.77;;;;;;;19.78;72.52;100689.33;125119;1102;104306;-77
2021/06/03 07:45:20;;;;;;;9.47;3.93;;;;;;;19.74;71.82;100698.16;125184;1102;104698;-78
2021/06/03 07:47:50;;;;;;;8.37;3.83;;;;;;;19.71;71.61;100698.16;125073;1102;104166;-79
2021/06/03 07:50:20;;;;;;;11.73;3.73;;;;;;;19.62;71.61;100699.05;125182;1102;104156;-79
2021/06/03 07:52:52;;;;;;;10.10;3.50;;;;;;;19.61;70.87;100699.05;125123;1102;104463;-79
2021/06/03 07:55:22;;;;;;;6.53;3.47;;;;;;;19.57;70.61;100704.36;124893;1102;104344;-78
2021/06/03 07:57:57;;;;;;;9.97;3.83;;;;;;;19.63;70.57;100706.12;125026;1102;104201;-78
2021/06/03 08:00:29;;;;;;;7.85;3.60;;;;;;;19.77;70.13;100694.66;125016;1102;104301;-80
2021/06/03 08:02:59;;;;;;;6.67;3.20;;;;;;;19.93;70.27;100688.47;125071;1099;104255;-79
2021/06/03 08:05:35;;;;;;;6.67;3.67;;;;;;;20.11;71.02;100696.42;125143;1102;104175;-78
2021/06/03 08:08:05;;;;;;;8.73;3.73;;;;;;;20.29;68.84;100689.33;125050;1102;104210;-78
2021/06/03 08:10:40;;;;;;;7.15;3.00;;;;;;;20.41;69.43;100693.73;125137;1102;104284;-78
2021/06/03 08:13:13;;;;;;;5.97;3.30;;;;;;;20.56;68.20;100691.05;125197;1102;104141;-79
2021/06/03 08:15:45;;;;;;;7.77;3.23;;;;;;;20.76;69.11;100691.03;125201;1102;104204;-77
2021/06/03 08:18:17;;;;;;;10.18;3.30;;;;;;;20.92;67.73;100678.52;125038;1099;104127;-77
2021/06/03 08:20:52;;;;;;;8.87;3.20;;;;;;;21.08;68.99;100681.12;125130;1098;104784;-77
2021/06/03 08:23:24;;;;;;;6.67;3.10;;;;;;;21.17;64.62;100679.28;125130;1099;104237;-79
2021/06/03 08:25:56;;;;;;;10.37;3.37;;;;;;;21.29;65.27;100681.02;125143;1099;104226;-78
2021/06/03 08:28:28;;;;;;;10.23;3.80;;;;;;;21.46;66.95;100680.04;125107;1099;104175;-77
2021/06/03 08:31:01;;;;;;;10.50;3.73;;;;;;;21.65;65.43;100676.36;125150;1101;104293;-78
2021/06/03 08:33:31;;;;;;;6.90;3.33;;;;;;;21.75;65.33;100666.48;125033;1102;104204;-79
2021/06/03 08:36:12;;;;;;;7.13;2.90;;;;;;;21.94;65.20;100669.02;125164;1102;104160;-78
2021/06/03 08:38:41;;;;;;;9.23;3.63;;;;;;;21.85;64.13;100686.91;125109;1102;104265;-79
2021/06/03 08:41:12;;;;;;;8.10;3.30;;;;;;;21.62;63.17;100675.51;125162;1102;104264;-78
2021/06/03 08:43:43;;;;;;;6.47;2.83;;;;;;;21.59;63.21;100670.19;124917;1105;104389;-79
2021/06/03 08:46:18;;;;;;;6.53;3.10;;;;;;;21.64;62.64;100676.38;124877;1102;104338;-78
2021/06/03 08:48:48;;;;;;;;;;;;;;;21.64;61.45;100676.38;124941;1101;104210;-79
2021/06/03 08:51:20;;;;;;;7.40;3.10;;;;;;;21.57;63.68;100677.34;125173;1102;104156;-78
2021/06/03 08:53:50;;;;;;;6.03;3.17;;;;;;;21.36;62.68;100681.86;125153;1102;104181;-76
2021/06/03 08:56:20;;;;;;;11.73;3.10;;;;;;;21.19;62.29;100677.52;125167;1102;104300;-77
2021/06/03 08:58:53;;;;;;;7.30;2.90;;;;;;;21.06;62.08;100689.13;124920;1102;104178;-78
2021/06/03 09:01:29;;;;;;;7.40;3.10;;;;;;;21.05;62.30;100676.70;125157;1102;104284;-78
2021/06/03 09:04:00;;;;;;;7.23;2.97;;;;;;;21.18;62.38;100680.19;125159;1102;104296;-77
2021/06/03 09:06:35;;;;;;;7.80;2.90;;;;;;;21.20;60.90;100670.39;124849;1102;104165;-77
2021/06/03 09:09:08;;;;;;;7.33;3.07;;;;;;;21.32;60.82;100680.13;124923;1102;104341;-78
2021/06/03 09:11:39;;;;;;;5.83;2.77;;;;;;;21.36;61.34;100687.19;125053;1102;104338;-77
2021/06/03 09:14:17;;;;;;;6.37;2.93;;;;;;;21.30;59.20;100689.89;125069;1101;104554;-80
2021/06/03 09:16:55;;;;;;;9.07;3.37;;;;;;;21.29;58.95;100702.36;125086;1102;104175;-76
2021/06/03 09:19:26;;;;;;;6.63;2.77;;;;;;;21.23;58.28;100691.72;125141;1099;104239;-77
2021/06/03 09:21:56;;;;;;;6.50;2.93;;;;;;;21.30;57.01;100687.22;125100;1099;104131;-77
2021/06/03 09:24:34;;;;;;;8.60;3.00;;;;;;;21.43;58.89;100691.61;125118;1099;104208;-78
2021/06/03 09:27:06;;;;;;;5.73;2.77;;;;;;;21.45;52.02;100696.94;124986;1102;104136;-76
2021/06/03 09:29:40;;;;;;;5.23;2.80;;;;;;;21.51;55.56;100686.27;125075;1099;104205;-78
2021/06/03 09:32:14;;;;;;;5.53;2.90;;;;;;;21.62;57.63;100694.20;125017;1102;104172;-76
2021/06/03 09:34:55;;;;;;;6.63;3.00;;;;;;;21.65;56.66;100704.86;125103;1102;104972;-78
2021/06/03 09:37:34;;;;;;;8.37;3.33;;;;;;;21.64;57.22;100695.06;124983;1102;102605;-78
2021/06/03 09:40:05;;;;;;;5.20;2.83;;;;;;;21.70;54.88;100697.70;124965;1099;104227;-77
2021/06/03 09:42:34;;;;;;;6.53;2.80;;;;;;;21.65;55.75;100683.50;124995;1099;104582;-76
2021/06/03 09:45:04;;;;;;;6.07;3.03;;;;;;;21.54;55.56;100680.91;125112;1099;104176;-76
2021/06/03 09:47:38;;;;;;;10.70;3.17;;;;;;;21.48;54.40;100695.13;125108;1102;104223;-78
2021/06/03 09:50:10;;;;;;;3.77;2.70;;;;;;;21.42;54.05;100697.84;125067;1102;104306;-76
2021/06/03 09:52:44;;;;;;;7.00;3.00;;;;;;;21.32;52.35;100696.13;125131;1102;104252;-77
2021/06/03 09:55:16;;;;;;;6.83;2.97;;;;;;;21.35;53.26;100696.12;125105;1102;104198;-76
2021/06/03 09:57:55;;;;;;;13.10;3.17;;;;;;;21.39;52.73;100696.98;125137;1102;104178;-77
2021/06/03 10:00:24;;;;;;;7.70;3.27;;;;;;;21.39;52.72;100692.52;125125;1102;104143;-76
2021/06/03 10:02:55;;;;;;;9.40;2.83;;;;;;;21.49;52.04;100694.28;125074;1102;104322;-76
2021/06/03 10:05:26;;;;;;;5.37;2.60;;;;;;;21.64;50.86;100698.61;125102;1102;104227;-75
2021/06/03 10:07:57;;;;;;;10.20;3.30;;;;;;;21.53;52.13;100712.06;125098;1102;104177;-77
2021/06/03 10:10:28;;;;;;;6.13;2.80;;;;;;;21.31;52.08;100702.36;125036;1102;104268;-77
2021/06/03 10:13:04;;;;;;;5.73;3.33;;;;;;;21.23;52.94;100701.52;125104;1102;104211;-77
2021/06/03 10:15:38;;;;;;;9.30;3.37;;;;;;;21.19;53.22;100692.62;125041;1102;104163;-78
2021/06/03 10:18:11;;;;;;;4.83;3.10;;;;;;;21.11;48.48;100708.66;125114;1102;104315;-77
2021/06/03 10:20:46;;;;;;;5.67;3.00;;;;;;;21.03;47.86;100729.16;125061;1100;104246;-78
2021/06/03 10:23:22;;;;;;;6.70;2.90;;;;;;;20.90;50.39;100720.32;125004;1102;104290;-78
2021/06/03 10:25:54;;;;;;;3.77;2.80;;;;;;;20.94;51.15;100723.85;125131;1102;104142;-76
2021/06/03 10:28:24;;;;;;;5.80;3.07;;;;;;;20.93;51.09;100722.10;125214;1102;104401;-78
2021/06/03 10:30:57;;;;;;;5.33;3.10;;;;;;;21.01;51.13;100717.61;125080;1102;104200;-78
2021/06/03 10:33:27;;;;;;;6.90;3.10;;;;;;;21.11;49.21;100714.00;125194;1102;104230;-78
2021/06/03 10:36:00;;;;;;;7.27;3.10;;;;;;;21.28;49.91;100708.58;125187;1102;104144;-78
2021/06/03 10:38:31;;;;;;;7.50;3.03;;;;;;;21.64;50.14;100721.77;125086;1102;104213;-76
2021/06/03 10:41:05;;;;;;;7.83;3.07;;;;;;;21.69;47.77;100719.95;125039;1102;104147;-77
2021/06/03 10:43:53;;;;;;;9.83;3.40;;;;;;;21.65;49.92;100721.76;125099;1102;104210;-75
2021/06/03 10:46:25;;;;;;;8.20;3.13;;;;;;;21.55;47.78;100720.06;125077;1102;104322;-78
2021/06/03 10:48:57;;;;;;;5.47;2.97;;;;;;;21.47;48.69;100727.17;125164;1102;104314;-78
2021/06/03 10:51:31;;;;;;;8.23;3.27;;;;;;;21.36;49.31;100737.91;124806;1105;104255;-77
2021/06/03 10:54:01;;;;;;;11.53;3.47;;;;;;;21.27;47.55;100729.94;124836;1105;104697;-77
2021/06/03 10:56:30;;;;;;;7.07;3.13;;;;;;;21.18;48.45;100742.44;124862;1106;104206;-76
2021/06/03 10:59:04;;;;;;;8.13;3.10;;;;;;;21.10;47.67;100743.35;124949;1105;104335;-77
2021/06/03 11:01:54;;;;;;;4.97;3.10;;;;;;;21.00;48.05;100751.42;125057;1102;104418;-77
2021/06/03 11:04:29;;;;;;;6.17;2.77;;;;;;;20.96;47.19;100743.42;125079;1102;104340;-77
2021/06/03 11:07:03;;;;;;;7.50;3.10;;;;;;;21.07;47.75;100738.94;125088;1102;104463;-77
2021/06/03 11:09:34;;;;;;;7.87;3.07;;;;;;;21.28;48.30;100727.27;125213;1102;104274;-76
2021/06/03 11:12:15;;;;;;;7.08;3.25;;;;;;;21.50;48.86;100725.43;124882;1102;104178;-76
2021/06/03 11:15:03;;;;;;;4.97;2.83;;;;;;;21.76;48.21;100729.70;124889;1105;104262;-78
2021/06/03 11:17:57;;;;;;;4.40;2.67;;;;;;;21.83;46.71;100723.43;124772;1102;104220;-78
2021/06/03 11:20:40;;;;;;;7.57;2.90;;;;;;;21.81;46.64;100738.56;124789;1105;104261;-77
2021/06/03 11:23:37;;;;;;;5.63;2.77;;;;;;;21.66;45.76;100741.33;125128;1102;104309;-77
2021/06/03 11:26:09;;;;;;;5.80;2.60;;;;;;;21.44;45.57;100737.87;125022;1102;104217;-77
2021/06/03 11:28:39;;;;;;;8.27;2.77;;;;;;;21.29;44.43;100737.06;125131;1102;104201;-76